Cold Bay Airport
PACD : now visible

Aeroporto :











RITROVATECI SU...

 
LOGIN :

Iscrizione | Disclaimer

   EN    FR    IT 

 









Sommario :    VFR   VFR Marginale   IFR   IFR Intensivo   IFR Molto Intensivo
Visibilità : 
Base nubi : 
>= 8 km
>= 3000ft
5 / 8 km
1000 / 3000 ft
1500m / 5 km
500 / 1000 ft
800 / 1500m
200 / 500 ft
< 800m
< 200 ft
Simboli :   Temporali  Nebbia  Neve Forte  Precipitazioni Forti  Vento > 20 kt






- Altitudine del aeroporto : 96 ft
- Codice IATA : CDB


PACD - Cold Bay

ULTIMO METAR :
  • 011953Z 12010KT 10SM -RA BKN015 OVC020 08/07 A2920 RMK AO2 RAE22B43 SLP889 P0001 T00780067

METARs OBSOLETI :
  • 011928Z 13010KT 10SM OVC015 08/07 A2920 RMK AO2 RAE22 P0001 T00780067
  • 011853Z 13010KT 7SM -RA BKN012 OVC021 08/07 A2919 RMK AO2 SLP885 P0001 T00780067
  • 011846Z 12010KT 9SM -RA BKN014 BKN019 OVC033 08/07 A2919 RMK AO2 P0001 T00780067
  • 011753Z 10014KT 10SM -RA SCT019 BKN028 OVC044 08/06 A2918 RMK AO2 RAB33 SLP881 P0000 60000 T00780061 10078 20072 53009

TAF PACD
Valido dal 01 a 18 ore il 02 a 18 ore UTC


011739Z 0118/0218 12010KT P6SM VCSH OVC020
FM012000 12012G22KT P6SM VCSH OVC020
FM020600 08011KT P6SM OVC025
FM021400 32008KT P6SM OVC030
FIR PAZA / America del Nord



MetMap, La meteo Aeronautica in un colpo d'occhio ! - Copyright ORBIFLY Dicembre 2007 - Disclaimer

ORBIFLY MET'MAP TEAM :

Programmazione e sviluppo : Alexandra Zaïnal
Concezione : Baudouin d'Aumeries
Aiuto per la programmazione : Marc-Olivier Méhu
Supporto tecnico e logistico : Manuel Goepfert
Aiuto per la traduzione : Arnaldo La Scala

Contatto : metmap@orbifly.com




FONTI E CREDITI :

   NOAA       Earth
Advisory